sensor_id;sensor_type;location;lat;lon;timestamp;temperature;humidity
5346;DHT22;2695;49.444;11.054;2023-04-24T00:02:11;12.20;99.90
5346;DHT22;2695;49.444;11.054;2023-04-24T00:04:39;12.10;99.90
5346;DHT22;2695;49.444;11.054;2023-04-24T00:07:08;12.10;99.90
5346;DHT22;2695;49.444;11.054;2023-04-24T00:09:37;12.10;99.90
5346;DHT22;2695;49.444;11.054;2023-04-24T00:12:05;12.10;99.90
5346;DHT22;2695;49.444;11.054;2023-04-24T00:14:33;12.20;99.90
5346;DHT22;2695;49.444;11.054;2023-04-24T00:17:01;12.10;99.90
5346;DHT22;2695;49.444;11.054;2023-04-24T00:19:29;12.10;99.90
5346;DHT22;2695;49.444;11.054;2023-04-24T00:21:57;12.10;99.90
5346;DHT22;2695;49.444;11.054;2023-04-24T00:24:25;12.10;99.90
5346;DHT22;2695;49.444;11.054;2023-04-24T00:26:55;12.10;99.90
5346;DHT22;2695;49.444;11.054;2023-04-24T00:29:23;12.10;99.90
5346;DHT22;2695;49.444;11.054;2023-04-24T00:31:51;12.00;99.90
5346;DHT22;2695;49.444;11.054;2023-04-24T00:34:19;12.00;99.90
5346;DHT22;2695;49.444;11.054;2023-04-24T00:36:47;12.00;99.90
5346;DHT22;2695;49.444;11.054;2023-04-24T00:39:17;12.00;99.90
5346;DHT22;2695;49.444;11.054;2023-04-24T00:41:45;11.90;99.90
5346;DHT22;2695;49.444;11.054;2023-04-24T00:44:15;11.90;99.90
5346;DHT22;2695;49.444;11.054;2023-04-24T00:46:43;11.80;99.90
5346;DHT22;2695;49.444;11.054;2023-04-24T00:49:12;11.80;99.90
5346;DHT22;2695;49.444;11.054;2023-04-24T00:51:41;11.90;99.90
5346;DHT22;2695;49.444;11.054;2023-04-24T00:54:12;11.80;99.90
5346;DHT22;2695;49.444;11.054;2023-04-24T00:56:40;11.90;99.90
5346;DHT22;2695;49.444;11.054;2023-04-24T00:59:09;11.90;99.90
5346;DHT22;2695;49.444;11.054;2023-04-24T01:01:38;11.90;99.90
5346;DHT22;2695;49.444;11.054;2023-04-24T01:04:09;11.90;99.90
5346;DHT22;2695;49.444;11.054;2023-04-24T01:06:40;11.90;99.90
5346;DHT22;2695;49.444;11.054;2023-04-24T01:09:08;11.90;99.90
5346;DHT22;2695;49.444;11.054;2023-04-24T01:11:37;11.90;99.90
5346;DHT22;2695;49.444;11.054;2023-04-24T01:14:05;11.90;99.90
5346;DHT22;2695;49.444;11.054;2023-04-24T01:16:33;12.00;99.90
5346;DHT22;2695;49.444;11.054;2023-04-24T01:19:03;12.00;99.90
5346;DHT22;2695;49.444;11.054;2023-04-24T01:21:35;12.00;99.90
5346;DHT22;2695;49.444;11.054;2023-04-24T01:24:06;12.00;99.90
5346;DHT22;2695;49.444;11.054;2023-04-24T01:26:34;11.90;99.90
5346;DHT22;2695;49.444;11.054;2023-04-24T01:29:02;11.90;99.90
5346;DHT22;2695;49.444;11.054;2023-04-24T01:31:30;11.90;99.90
5346;DHT22;2695;49.444;11.054;2023-04-24T01:34:00;11.90;99.90
5346;DHT22;2695;49.444;11.054;2023-04-24T01:36:28;11.90;99.90
5346;DHT22;2695;49.444;11.054;2023-04-24T01:38:58;11.90;99.90
5346;DHT22;2695;49.444;11.054;2023-04-24T01:41:27;11.90;99.90
5346;DHT22;2695;49.444;11.054;2023-04-24T01:43:57;11.90;99.90
5346;DHT22;2695;49.444;11.054;2023-04-24T01:46:25;12.00;99.90
5346;DHT22;2695;49.444;11.054;2023-04-24T01:48:53;12.00;99.90
5346;DHT22;2695;49.444;11.054;2023-04-24T01:51:22;12.00;99.90
5346;DHT22;2695;49.444;11.054;2023-04-24T01:53:50;12.10;99.90
5346;DHT22;2695;49.444;11.054;2023-04-24T01:56:19;12.10;99.90
5346;DHT22;2695;49.444;11.054;2023-04-24T01:58:49;12.10;99.90
5346;DHT22;2695;49.444;11.054;2023-04-24T02:01:18;12.10;99.90
5346;DHT22;2695;49.444;11.054;2023-04-24T02:03:46;12.10;99.90
5346;DHT22;2695;49.444;11.054;2023-04-24T02:06:14;12.10;99.90
5346;DHT22;2695;49.444;11.054;2023-04-24T02:08:42;12.10;99.90
5346;DHT22;2695;49.444;11.054;2023-04-24T02:11:11;12.20;99.90
5346;DHT22;2695;49.444;11.054;2023-04-24T02:13:39;12.20;99.90
5346;DHT22;2695;49.444;11.054;2023-04-24T02:16:08;12.20;99.90
5346;DHT22;2695;49.444;11.054;2023-04-24T02:18:36;12.20;99.90
5346;DHT22;2695;49.444;11.054;2023-04-24T02:21:04;12.20;99.90
5346;DHT22;2695;49.444;11.054;2023-04-24T02:23:32;12.10;99.90
5346;DHT22;2695;49.444;11.054;2023-04-24T02:26:00;12.10;99.90
5346;DHT22;2695;49.444;11.054;2023-04-24T02:28:28;12.10;99.90
5346;DHT22;2695;49.444;11.054;2023-04-24T02:30:56;12.00;99.90
5346;DHT22;2695;49.444;11.054;2023-04-24T02:33:25;12.00;99.90
5346;DHT22;2695;49.444;11.054;2023-04-24T02:35:53;11.90;99.90
5346;DHT22;2695;49.444;11.054;2023-04-24T02:38:21;11.90;99.90
5346;DHT22;2695;49.444;11.054;2023-04-24T02:40:49;11.90;99.90
5346;DHT22;2695;49.444;11.054;2023-04-24T02:43:17;11.90;99.90
5346;DHT22;2695;49.444;11.054;2023-04-24T02:45:45;11.90;99.90
5346;DHT22;2695;49.444;11.054;2023-04-24T02:48:13;11.90;99.90
5346;DHT22;2695;49.444;11.054;2023-04-24T02:50:42;11.90;99.90
5346;DHT22;2695;49.444;11.054;2023-04-24T02:53:10;11.90;99.90
5346;DHT22;2695;49.444;11.054;2023-04-24T02:55:38;11.90;99.90
5346;DHT22;2695;49.444;11.054;2023-04-24T02:58:06;11.90;99.90
5346;DHT22;2695;49.444;11.054;2023-04-24T03:00:34;11.90;99.90
5346;DHT22;2695;49.444;11.054;2023-04-24T03:03:02;11.90;99.90
5346;DHT22;2695;49.444;11.054;2023-04-24T03:05:30;11.80;99.90
5346;DHT22;2695;49.444;11.054;2023-04-24T03:08:00;11.80;99.90
5346;DHT22;2695;49.444;11.054;2023-04-24T03:10:27;11.80;99.90
5346;DHT22;2695;49.444;11.054;2023-04-24T03:12:56;11.80;99.90
5346;DHT22;2695;49.444;11.054;2023-04-24T03:15:24;11.80;99.90
5346;DHT22;2695;49.444;11.054;2023-04-24T03:17:51;11.80;99.90
5346;DHT22;2695;49.444;11.054;2023-04-24T03:20:22;11.70;99.90
5346;DHT22;2695;49.444;11.054;2023-04-24T03:22:50;11.70;99.90
5346;DHT22;2695;49.444;11.054;2023-04-24T03:25:20;11.70;99.90
5346;DHT22;2695;49.444;11.054;2023-04-24T03:27:48;11.60;99.90
5346;DHT22;2695;49.444;11.054;2023-04-24T03:30:16;11.60;99.90
5346;DHT22;2695;49.444;11.054;2023-04-24T03:32:44;11.50;99.90
5346;DHT22;2695;49.444;11.054;2023-04-24T03:35:12;11.50;99.90
5346;DHT22;2695;49.444;11.054;2023-04-24T03:37:40;11.50;99.90
5346;DHT22;2695;49.444;11.054;2023-04-24T03:40:08;11.50;99.90
5346;DHT22;2695;49.444;11.054;2023-04-24T03:42:38;11.50;99.90
5346;DHT22;2695;49.444;11.054;2023-04-24T03:45:07;11.40;99.90
5346;DHT22;2695;49.444;11.054;2023-04-24T03:47:35;11.30;99.90
5346;DHT22;2695;49.444;11.054;2023-04-24T03:50:04;11.30;99.90
5346;DHT22;2695;49.444;11.054;2023-04-24T03:52:32;11.30;99.90
5346;DHT22;2695;49.444;11.054;2023-04-24T03:55:00;11.30;99.90
5346;DHT22;2695;49.444;11.054;2023-04-24T03:57:28;11.30;99.90
5346;DHT22;2695;49.444;11.054;2023-04-24T03:59:57;11.30;99.90
5346;DHT22;2695;49.444;11.054;2023-04-24T04:02:25;11.30;99.90
5346;DHT22;2695;49.444;11.054;2023-04-24T04:04:53;11.30;99.90
5346;DHT22;2695;49.444;11.054;2023-04-24T04:07:21;11.20;99.90
5346;DHT22;2695;49.444;11.054;2023-04-24T04:09:49;11.30;99.90
5346;DHT22;2695;49.444;11.054;2023-04-24T04:12:17;11.20;99.90
5346;DHT22;2695;49.444;11.054;2023-04-24T04:14:45;11.20;99.90
5346;DHT22;2695;49.444;11.054;2023-04-24T04:17:14;11.30;99.90
5346;DHT22;2695;49.444;11.054;2023-04-24T04:19:42;11.20;99.90
5346;DHT22;2695;49.444;11.054;2023-04-24T04:22:11;11.10;99.90
5346;DHT22;2695;49.444;11.054;2023-04-24T04:24:39;11.20;99.90
5346;DHT22;2695;49.444;11.054;2023-04-24T04:27:07;11.10;99.90
5346;DHT22;2695;49.444;11.054;2023-04-24T04:29:35;11.10;99.90
5346;DHT22;2695;49.444;11.054;2023-04-24T04:32:03;11.10;99.90
5346;DHT22;2695;49.444;11.054;2023-04-24T04:34:33;11.20;99.90
5346;DHT22;2695;49.444;11.054;2023-04-24T04:37:01;11.10;99.90
5346;DHT22;2695;49.444;11.054;2023-04-24T04:39:29;11.10;99.90
5346;DHT22;2695;49.444;11.054;2023-04-24T04:41:58;11.10;99.90
5346;DHT22;2695;49.444;11.054;2023-04-24T04:44:27;11.10;99.90
5346;DHT22;2695;49.444;11.054;2023-04-24T04:46:56;11.10;99.90
5346;DHT22;2695;49.444;11.054;2023-04-24T04:49:25;11.10;99.90
5346;DHT22;2695;49.444;11.054;2023-04-24T04:51:56;11.20;99.90
5346;DHT22;2695;49.444;11.054;2023-04-24T04:54:25;11.10;99.90
5346;DHT22;2695;49.444;11.054;2023-04-24T04:56:53;11.10;99.90
5346;DHT22;2695;49.444;11.054;2023-04-24T04:59:21;11.10;99.90
5346;DHT22;2695;49.444;11.054;2023-04-24T05:01:49;11.20;99.90
5346;DHT22;2695;49.444;11.054;2023-04-24T05:04:17;11.20;99.90
5346;DHT22;2695;49.444;11.054;2023-04-24T05:06:45;11.30;99.90
5346;DHT22;2695;49.444;11.054;2023-04-24T05:09:15;11.20;99.90
5346;DHT22;2695;49.444;11.054;2023-04-24T05:11:43;11.30;99.90
5346;DHT22;2695;49.444;11.054;2023-04-24T05:14:11;11.20;99.90
5346;DHT22;2695;49.444;11.054;2023-04-24T05:16:40;11.30;99.90
5346;DHT22;2695;49.444;11.054;2023-04-24T05:19:08;11.30;99.90
5346;DHT22;2695;49.444;11.054;2023-04-24T05:21:40;11.40;99.90
5346;DHT22;2695;49.444;11.054;2023-04-24T05:24:08;11.50;99.90
5346;DHT22;2695;49.444;11.054;2023-04-24T05:26:38;11.60;99.90
5346;DHT22;2695;49.444;11.054;2023-04-24T05:29:05;11.70;99.90
5346;DHT22;2695;49.444;11.054;2023-04-24T05:31:33;11.80;99.90
5346;DHT22;2695;49.444;11.054;2023-04-24T05:34:05;11.80;99.90
5346;DHT22;2695;49.444;11.054;2023-04-24T05:36:33;11.90;99.90
5346;DHT22;2695;49.444;11.054;2023-04-24T05:39:01;11.80;99.90
5346;DHT22;2695;49.444;11.054;2023-04-24T05:41:34;11.80;99.90
5346;DHT22;2695;49.444;11.054;2023-04-24T05:44:03;11.90;99.90
5346;DHT22;2695;49.444;11.054;2023-04-24T05:46:31;12.10;99.90
5346;DHT22;2695;49.444;11.054;2023-04-24T05:49:00;12.00;99.90
5346;DHT22;2695;49.444;11.054;2023-04-24T05:51:28;11.90;99.90
5346;DHT22;2695;49.444;11.054;2023-04-24T05:53:56;12.20;99.90
5346;DHT22;2695;49.444;11.054;2023-04-24T05:56:24;12.20;99.90
5346;DHT22;2695;49.444;11.054;2023-04-24T05:58:54;12.30;99.90
5346;DHT22;2695;49.444;11.054;2023-04-24T06:01:23;12.40;99.90
5346;DHT22;2695;49.444;11.054;2023-04-24T06:03:54;12.40;99.90
5346;DHT22;2695;49.444;11.054;2023-04-24T06:06:23;12.50;99.90
5346;DHT22;2695;49.444;11.054;2023-04-24T06:08:52;12.90;99.90
5346;DHT22;2695;49.444;11.054;2023-04-24T06:14:10;12.80;99.90
5346;DHT22;2695;49.444;11.054;2023-04-24T06:16:42;12.90;99.90
5346;DHT22;2695;49.444;11.054;2023-04-24T06:19:18;13.00;99.90
5346;DHT22;2695;49.444;11.054;2023-04-24T06:21:47;13.00;99.90
5346;DHT22;2695;49.444;11.054;2023-04-24T06:24:15;12.90;99.90
5346;DHT22;2695;49.444;11.054;2023-04-24T06:26:43;12.90;99.90
5346;DHT22;2695;49.444;11.054;2023-04-24T06:29:15;12.80;99.90
5346;DHT22;2695;49.444;11.054;2023-04-24T06:31:46;12.90;99.90
5346;DHT22;2695;49.444;11.054;2023-04-24T06:34:14;12.60;99.90
5346;DHT22;2695;49.444;11.054;2023-04-24T06:36:42;12.60;99.90
5346;DHT22;2695;49.444;11.054;2023-04-24T06:39:10;12.60;99.90
5346;DHT22;2695;49.444;11.054;2023-04-24T06:41:38;12.70;99.90
5346;DHT22;2695;49.444;11.054;2023-04-24T06:44:07;12.70;99.90
5346;DHT22;2695;49.444;11.054;2023-04-24T06:46:41;12.70;99.90
5346;DHT22;2695;49.444;11.054;2023-04-24T06:49:11;12.70;99.90
5346;DHT22;2695;49.444;11.054;2023-04-24T06:51:42;12.70;99.90
5346;DHT22;2695;49.444;11.054;2023-04-24T06:54:11;12.80;99.90
5346;DHT22;2695;49.444;11.054;2023-04-24T06:56:39;12.90;99.90
5346;DHT22;2695;49.444;11.054;2023-04-24T06:59:07;13.00;99.90
5346;DHT22;2695;49.444;11.054;2023-04-24T07:02:15;13.20;99.90
5346;DHT22;2695;49.444;11.054;2023-04-24T07:04:46;13.40;99.90
5346;DHT22;2695;49.444;11.054;2023-04-24T07:07:21;13.60;99.90
5346;DHT22;2695;49.444;11.054;2023-04-24T07:09:54;13.70;99.90
5346;DHT22;2695;49.444;11.054;2023-04-24T07:12:23;13.90;99.90
5346;DHT22;2695;49.444;11.054;2023-04-24T07:14:51;14.10;99.90
5346;DHT22;2695;49.444;11.054;2023-04-24T07:17:33;14.20;99.90
5346;DHT22;2695;49.444;11.054;2023-04-24T07:20:13;14.50;99.90
5346;DHT22;2695;49.444;11.054;2023-04-24T07:22:45;14.70;99.90
5346;DHT22;2695;49.444;11.054;2023-04-24T07:25:20;14.80;99.90
5346;DHT22;2695;49.444;11.054;2023-04-24T07:28:23;14.80;99.90
5346;DHT22;2695;49.444;11.054;2023-04-24T07:30:53;15.00;99.90
5346;DHT22;2695;49.444;11.054;2023-04-24T07:33:22;15.00;99.90
5346;DHT22;2695;49.444;11.054;2023-04-24T07:35:51;14.80;99.90
5346;DHT22;2695;49.444;11.054;2023-04-24T07:38:22;14.50;99.90
5346;DHT22;2695;49.444;11.054;2023-04-24T07:41:00;14.80;99.90
5346;DHT22;2695;49.444;11.054;2023-04-24T07:43:37;14.60;99.90
5346;DHT22;2695;49.444;11.054;2023-04-24T07:46:08;14.60;99.90
5346;DHT22;2695;49.444;11.054;2023-04-24T07:48:41;14.60;99.90
5346;DHT22;2695;49.444;11.054;2023-04-24T07:51:10;14.60;99.90
5346;DHT22;2695;49.444;11.054;2023-04-24T07:53:40;14.80;99.90
5346;DHT22;2695;49.444;11.054;2023-04-24T07:56:08;15.10;99.90
5346;DHT22;2695;49.444;11.054;2023-04-24T07:58:36;15.50;99.90
5346;DHT22;2695;49.444;11.054;2023-04-24T08:01:04;16.30;99.90
5346;DHT22;2695;49.444;11.054;2023-04-24T08:03:31;16.90;99.90
5346;DHT22;2695;49.444;11.054;2023-04-24T08:06:00;17.70;99.90
5346;DHT22;2695;49.444;11.054;2023-04-24T08:08:29;18.10;99.90
5346;DHT22;2695;49.444;11.054;2023-04-24T08:10:57;18.60;99.90
5346;DHT22;2695;49.444;11.054;2023-04-24T08:13:25;18.60;99.90
5346;DHT22;2695;49.444;11.054;2023-04-24T08:15:53;18.40;99.90
5346;DHT22;2695;49.444;11.054;2023-04-24T08:18:22;17.90;99.90
5346;DHT22;2695;49.444;11.054;2023-04-24T08:20:50;17.60;99.90
5346;DHT22;2695;49.444;11.054;2023-04-24T08:23:21;17.70;99.60
5346;DHT22;2695;49.444;11.054;2023-04-24T08:25:56;17.70;99.90
5346;DHT22;2695;49.444;11.054;2023-04-24T08:28:31;17.70;99.80
5346;DHT22;2695;49.444;11.054;2023-04-24T08:30:58;17.50;99.60
5346;DHT22;2695;49.444;11.054;2023-04-24T08:33:26;17.10;99.60
5346;DHT22;2695;49.444;11.054;2023-04-24T08:36:01;16.80;99.90
5346;DHT22;2695;49.444;11.054;2023-04-24T08:38:29;16.80;99.90
5346;DHT22;2695;49.444;11.054;2023-04-24T08:41:00;17.10;99.90
5346;DHT22;2695;49.444;11.054;2023-04-24T08:54:03;17.70;98.20
5346;DHT22;2695;49.444;11.054;2023-04-24T08:56:45;18.20;98.00
5346;DHT22;2695;49.444;11.054;2023-04-24T08:59:15;18.40;98.10
5346;DHT22;2695;49.444;11.054;2023-04-24T09:01:45;18.70;96.20
5346;DHT22;2695;49.444;11.054;2023-04-24T09:04:15;18.60;96.40
5346;DHT22;2695;49.444;11.054;2023-04-24T09:06:48;18.20;96.90
5346;DHT22;2695;49.444;11.054;2023-04-24T09:09:23;18.00;97.50
5346;DHT22;2695;49.444;11.054;2023-04-24T09:11:53;18.30;97.30
5346;DHT22;2695;49.444;11.054;2023-04-24T09:14:22;19.00;96.20
5346;DHT22;2695;49.444;11.054;2023-04-24T09:16:51;19.60;95.90
5346;DHT22;2695;49.444;11.054;2023-04-24T09:19:19;20.50;94.90
5346;DHT22;2695;49.444;11.054;2023-04-24T09:21:49;21.90;91.80
5346;DHT22;2695;49.444;11.054;2023-04-24T09:24:19;23.40;88.90
5346;DHT22;2695;49.444;11.054;2023-04-24T09:26:58;24.10;85.10
5346;DHT22;2695;49.444;11.054;2023-04-24T09:29:28;23.90;79.10
5346;DHT22;2695;49.444;11.054;2023-04-24T09:31:56;22.50;79.80
5346;DHT22;2695;49.444;11.054;2023-04-24T09:34:26;21.10;81.10
5346;DHT22;2695;49.444;11.054;2023-04-24T09:36:54;19.70;83.80
5346;DHT22;2695;49.444;11.054;2023-04-24T09:39:22;18.40;87.70
5346;DHT22;2695;49.444;11.054;2023-04-24T09:41:56;17.70;90.40
5346;DHT22;2695;49.444;11.054;2023-04-24T09:44:26;17.90;91.60
5346;DHT22;2695;49.444;11.054;2023-04-24T09:46:57;19.30;90.10
5346;DHT22;2695;49.444;11.054;2023-04-24T09:49:27;21.00;85.90
5346;DHT22;2695;49.444;11.054;2023-04-24T09:52:03;22.00;80.20
5346;DHT22;2695;49.444;11.054;2023-04-24T09:54:32;22.20;75.70
5346;DHT22;2695;49.444;11.054;2023-04-24T09:57:01;21.60;73.40
5346;DHT22;2695;49.444;11.054;2023-04-24T09:59:30;20.30;76.10
5346;DHT22;2695;49.444;11.054;2023-04-24T10:02:00;19.40;77.70
5346;DHT22;2695;49.444;11.054;2023-04-24T10:04:29;18.70;78.90
5346;DHT22;2695;49.444;11.054;2023-04-24T10:06:57;18.20;80.60
5346;DHT22;2695;49.444;11.054;2023-04-24T10:09:26;18.20;81.00
5346;DHT22;2695;49.444;11.054;2023-04-24T10:11:55;17.90;82.80
5346;DHT22;2695;49.444;11.054;2023-04-24T10:17:18;18.00;77.90
5346;DHT22;2695;49.444;11.054;2023-04-24T10:19:52;18.00;78.20
5346;DHT22;2695;49.444;11.054;2023-04-24T10:22:21;19.40;74.70
5346;DHT22;2695;49.444;11.054;2023-04-24T10:24:51;20.60;71.40
5346;DHT22;2695;49.444;11.054;2023-04-24T10:27:20;21.90;66.70
5346;DHT22;2695;49.444;11.054;2023-04-24T10:30:12;22.80;62.80
5346;DHT22;2695;49.444;11.054;2023-04-24T10:32:49;23.20;60.60
5346;DHT22;2695;49.444;11.054;2023-04-24T10:35:25;23.30;58.60
5346;DHT22;2695;49.444;11.054;2023-04-24T10:41:08;23.30;54.10
5346;DHT22;2695;49.444;11.054;2023-04-24T10:43:40;22.60;53.40
5346;DHT22;2695;49.444;11.054;2023-04-24T10:46:10;21.60;56.20
5346;DHT22;2695;49.444;11.054;2023-04-24T10:48:43;21.00;63.00
5346;DHT22;2695;49.444;11.054;2023-04-24T10:51:16;20.50;68.10
5346;DHT22;2695;49.444;11.054;2023-04-24T10:53:44;19.80;70.40
5346;DHT22;2695;49.444;11.054;2023-04-24T10:56:16;19.20;73.80
5346;DHT22;2695;49.444;11.054;2023-04-24T10:58:49;18.60;76.30
5346;DHT22;2695;49.444;11.054;2023-04-24T11:01:27;17.90;78.00
5346;DHT22;2695;49.444;11.054;2023-04-24T11:03:57;17.50;80.10
5346;DHT22;2695;49.444;11.054;2023-04-24T11:06:29;17.30;82.10
5346;DHT22;2695;49.444;11.054;2023-04-24T11:09:03;17.20;80.10
5346;DHT22;2695;49.444;11.054;2023-04-24T11:11:33;17.20;79.80
5346;DHT22;2695;49.444;11.054;2023-04-24T11:14:06;17.20;79.50
5346;DHT22;2695;49.444;11.054;2023-04-24T11:16:40;17.40;79.70
5346;DHT22;2695;49.444;11.054;2023-04-24T11:19:21;17.90;79.30
5346;DHT22;2695;49.444;11.054;2023-04-24T11:21:56;18.40;76.70
5346;DHT22;2695;49.444;11.054;2023-04-24T11:24:37;18.90;73.00
5346;DHT22;2695;49.444;11.054;2023-04-24T11:27:39;18.90;70.60
5346;DHT22;2695;49.444;11.054;2023-04-24T11:30:10;18.50;72.10
5346;DHT22;2695;49.444;11.054;2023-04-24T11:32:42;18.60;71.10
5346;DHT22;2695;49.444;11.054;2023-04-24T11:35:14;18.80;71.60
5346;DHT22;2695;49.444;11.054;2023-04-24T11:37:44;19.40;70.10
5346;DHT22;2695;49.444;11.054;2023-04-24T11:40:34;19.80;68.20
5346;DHT22;2695;49.444;11.054;2023-04-24T11:43:04;20.10;67.50
5346;DHT22;2695;49.444;11.054;2023-04-24T11:45:34;19.40;69.10
5346;DHT22;2695;49.444;11.054;2023-04-24T11:48:04;19.00;70.80
5346;DHT22;2695;49.444;11.054;2023-04-24T11:50:32;18.90;70.80
5346;DHT22;2695;49.444;11.054;2023-04-24T11:53:01;18.80;71.80
5346;DHT22;2695;49.444;11.054;2023-04-24T11:55:29;18.30;72.80
5346;DHT22;2695;49.444;11.054;2023-04-24T11:58:00;17.80;74.90
5346;DHT22;2695;49.444;11.054;2023-04-24T12:00:37;17.30;75.70
5346;DHT22;2695;49.444;11.054;2023-04-24T12:03:36;17.30;75.90
5346;DHT22;2695;49.444;11.054;2023-04-24T12:06:08;17.20;74.30
5346;DHT22;2695;49.444;11.054;2023-04-24T12:08:41;17.30;75.30
5346;DHT22;2695;49.444;11.054;2023-04-24T12:11:52;17.50;74.30
5346;DHT22;2695;49.444;11.054;2023-04-24T12:14:20;17.50;73.00
5346;DHT22;2695;49.444;11.054;2023-04-24T12:16:49;17.50;71.90
5346;DHT22;2695;49.444;11.054;2023-04-24T12:23:00;17.90;74.20
5346;DHT22;2695;49.444;11.054;2023-04-24T12:25:46;18.10;74.50
5346;DHT22;2695;49.444;11.054;2023-04-24T12:28:15;18.50;74.40
5346;DHT22;2695;49.444;11.054;2023-04-24T12:30:47;18.70;72.50
5346;DHT22;2695;49.444;11.054;2023-04-24T12:33:17;18.60;72.90
5346;DHT22;2695;49.444;11.054;2023-04-24T12:35:51;18.50;72.30
5346;DHT22;2695;49.444;11.054;2023-04-24T12:38:23;18.50;72.60
5346;DHT22;2695;49.444;11.054;2023-04-24T12:41:02;18.20;72.50
5346;DHT22;2695;49.444;11.054;2023-04-24T12:43:30;18.30;72.00
5346;DHT22;2695;49.444;11.054;2023-04-24T12:45:59;18.10;71.40
5346;DHT22;2695;49.444;11.054;2023-04-24T12:48:27;17.80;72.60
5346;DHT22;2695;49.444;11.054;2023-04-24T12:50:57;17.80;73.60
5346;DHT22;2695;49.444;11.054;2023-04-24T12:53:28;17.90;72.40
5346;DHT22;2695;49.444;11.054;2023-04-24T12:55:58;18.20;73.60
5346;DHT22;2695;49.444;11.054;2023-04-24T12:58:26;18.30;72.10
5346;DHT22;2695;49.444;11.054;2023-04-24T13:00:54;18.40;72.60
5346;DHT22;2695;49.444;11.054;2023-04-24T13:03:22;18.30;73.00
5346;DHT22;2695;49.444;11.054;2023-04-24T13:05:51;18.20;72.70
5346;DHT22;2695;49.444;11.054;2023-04-24T13:08:21;18.30;73.40
5346;DHT22;2695;49.444;11.054;2023-04-24T13:10:49;18.50;72.00
5346;DHT22;2695;49.444;11.054;2023-04-24T13:13:18;18.60;72.80
5346;DHT22;2695;49.444;11.054;2023-04-24T13:15:47;18.70;72.10
5346;DHT22;2695;49.444;11.054;2023-04-24T13:18:15;18.60;72.70
5346;DHT22;2695;49.444;11.054;2023-04-24T13:20:43;18.50;73.00
5346;DHT22;2695;49.444;11.054;2023-04-24T13:23:12;18.00;71.80
5346;DHT22;2695;49.444;11.054;2023-04-24T13:25:42;17.50;72.70
5346;DHT22;2695;49.444;11.054;2023-04-24T13:28:10;16.80;75.80
5346;DHT22;2695;49.444;11.054;2023-04-24T13:30:38;16.50;80.10
5346;DHT22;2695;49.444;11.054;2023-04-24T13:33:06;16.30;81.30
5346;DHT22;2695;49.444;11.054;2023-04-24T13:35:35;16.10;81.80
5346;DHT22;2695;49.444;11.054;2023-04-24T13:38:03;16.00;83.20
5346;DHT22;2695;49.444;11.054;2023-04-24T13:40:36;15.90;81.50
5346;DHT22;2695;49.444;11.054;2023-04-24T13:43:05;16.00;81.30
5346;DHT22;2695;49.444;11.054;2023-04-24T13:45:33;16.10;82.00
5346;DHT22;2695;49.444;11.054;2023-04-24T13:48:04;16.30;81.50
5346;DHT22;2695;49.444;11.054;2023-04-24T13:50:32;16.40;81.40
5346;DHT22;2695;49.444;11.054;2023-04-24T13:53:01;16.10;83.90
5346;DHT22;2695;49.444;11.054;2023-04-24T13:55:29;15.80;84.10
5346;DHT22;2695;49.444;11.054;2023-04-24T13:57:58;15.50;84.60
5346;DHT22;2695;49.444;11.054;2023-04-24T14:00:29;15.30;86.00
5346;DHT22;2695;49.444;11.054;2023-04-24T14:03:04;15.20;85.30
5346;DHT22;2695;49.444;11.054;2023-04-24T14:06:06;15.30;85.90
5346;DHT22;2695;49.444;11.054;2023-04-24T14:08:43;15.40;84.50
5346;DHT22;2695;49.444;11.054;2023-04-24T14:11:14;15.40;84.50
5346;DHT22;2695;49.444;11.054;2023-04-24T14:13:43;15.60;83.40
5346;DHT22;2695;49.444;11.054;2023-04-24T14:16:14;15.80;82.70
5346;DHT22;2695;49.444;11.054;2023-04-24T14:18:42;16.20;82.60
5346;DHT22;2695;49.444;11.054;2023-04-24T14:21:10;16.00;83.20
5346;DHT22;2695;49.444;11.054;2023-04-24T14:23:38;15.90;82.90
5346;DHT22;2695;49.444;11.054;2023-04-24T14:26:06;16.10;82.60
5346;DHT22;2695;49.444;11.054;2023-04-24T14:28:34;16.10;83.90
5346;DHT22;2695;49.444;11.054;2023-04-24T14:31:02;16.10;84.00
5346;DHT22;2695;49.444;11.054;2023-04-24T14:33:32;16.10;83.20
5346;DHT22;2695;49.444;11.054;2023-04-24T14:36:00;16.00;83.00
5346;DHT22;2695;49.444;11.054;2023-04-24T14:38:29;16.00;84.30
5346;DHT22;2695;49.444;11.054;2023-04-24T14:40:58;16.00;83.50
5346;DHT22;2695;49.444;11.054;2023-04-24T14:43:29;15.90;84.90
5346;DHT22;2695;49.444;11.054;2023-04-24T14:45:59;15.90;85.90
5346;DHT22;2695;49.444;11.054;2023-04-24T14:48:28;15.70;85.90
5346;DHT22;2695;49.444;11.054;2023-04-24T14:50:58;16.10;86.30
5346;DHT22;2695;49.444;11.054;2023-04-24T14:53:27;16.00;86.10
5346;DHT22;2695;49.444;11.054;2023-04-24T14:55:55;15.80;86.70
5346;DHT22;2695;49.444;11.054;2023-04-24T14:58:24;15.60;88.00
5346;DHT22;2695;49.444;11.054;2023-04-24T15:00:55;15.50;87.90
5346;DHT22;2695;49.444;11.054;2023-04-24T15:03:23;15.60;88.40
5346;DHT22;2695;49.444;11.054;2023-04-24T15:05:54;15.40;85.60
5346;DHT22;2695;49.444;11.054;2023-04-24T15:08:24;15.20;85.70
5346;DHT22;2695;49.444;11.054;2023-04-24T15:10:52;15.10;87.80
5346;DHT22;2695;49.444;11.054;2023-04-24T15:13:20;15.30;87.70
5346;DHT22;2695;49.444;11.054;2023-04-24T15:15:49;15.60;86.80
5346;DHT22;2695;49.444;11.054;2023-04-24T15:18:17;15.10;87.00
5346;DHT22;2695;49.444;11.054;2023-04-24T15:20:46;15.00;87.30
5346;DHT22;2695;49.444;11.054;2023-04-24T15:23:17;15.00;88.30
5346;DHT22;2695;49.444;11.054;2023-04-24T15:25:50;14.90;89.10
5346;DHT22;2695;49.444;11.054;2023-04-24T15:28:18;15.00;89.30
5346;DHT22;2695;49.444;11.054;2023-04-24T15:30:48;14.70;90.10
5346;DHT22;2695;49.444;11.054;2023-04-24T15:33:16;14.60;90.20
5346;DHT22;2695;49.444;11.054;2023-04-24T15:35:44;14.50;90.60
5346;DHT22;2695;49.444;11.054;2023-04-24T15:38:13;14.40;90.60
5346;DHT22;2695;49.444;11.054;2023-04-24T15:40:41;14.30;90.80
5346;DHT22;2695;49.444;11.054;2023-04-24T15:43:11;14.40;90.50
5346;DHT22;2695;49.444;11.054;2023-04-24T15:45:46;14.40;90.50
5346;DHT22;2695;49.444;11.054;2023-04-24T15:48:14;14.50;91.10
5346;DHT22;2695;49.444;11.054;2023-04-24T15:50:45;14.60;90.10
5346;DHT22;2695;49.444;11.054;2023-04-24T15:53:13;14.70;90.00
5346;DHT22;2695;49.444;11.054;2023-04-24T15:55:48;14.70;87.90
5346;DHT22;2695;49.444;11.054;2023-04-24T15:58:19;14.70;87.90
5346;DHT22;2695;49.444;11.054;2023-04-24T16:00:48;14.90;87.20
5346;DHT22;2695;49.444;11.054;2023-04-24T16:03:16;14.70;87.30
5346;DHT22;2695;49.444;11.054;2023-04-24T16:05:45;14.70;84.90
5346;DHT22;2695;49.444;11.054;2023-04-24T16:08:13;14.70;85.40
5346;DHT22;2695;49.444;11.054;2023-04-24T16:10:41;14.70;86.70
5346;DHT22;2695;49.444;11.054;2023-04-24T16:13:09;14.70;86.50
5346;DHT22;2695;49.444;11.054;2023-04-24T16:15:39;14.80;86.00
5346;DHT22;2695;49.444;11.054;2023-04-24T16:18:07;14.70;87.30
5346;DHT22;2695;49.444;11.054;2023-04-24T16:20:36;14.80;87.50
5346;DHT22;2695;49.444;11.054;2023-04-24T16:23:04;14.80;86.80
5346;DHT22;2695;49.444;11.054;2023-04-24T16:25:32;14.90;87.10
5346;DHT22;2695;49.444;11.054;2023-04-24T16:28:08;14.90;87.30